createdAt,value
2022-07-29T00:03:35.667Z,2.55
2022-07-29T00:06:06.922Z,1.00
2022-07-29T00:14:03.563Z,1.92
2022-07-29T00:16:36.635Z,2.15
2022-07-29T00:19:28.858Z,2.07
2022-07-29T00:21:55.449Z,2.22
2022-07-29T00:24:25.407Z,1.67
2022-07-29T00:26:52.003Z,2.35
2022-07-29T00:29:33.646Z,2.38
2022-07-29T00:32:01.554Z,4.63
2022-07-29T00:34:52.883Z,2.30
2022-07-29T00:37:52.504Z,2.65
2022-07-29T00:40:19.247Z,3.88
2022-07-29T00:42:55.700Z,0.93
2022-07-29T00:45:25.993Z,1.53
2022-07-29T00:47:55.691Z,2.45
2022-07-29T00:50:22.440Z,1.02
2022-07-29T00:52:49.191Z,2.80
2022-07-29T00:55:18.104Z,1.80
2022-07-29T00:57:46.148Z,2.83
2022-07-29T01:00:18.435Z,2.65
2022-07-29T01:03:19.283Z,2.80
2022-07-29T01:05:50.223Z,1.00
2022-07-29T01:08:40.052Z,1.42
2022-07-29T01:11:06.778Z,2.73
2022-07-29T01:13:34.296Z,2.08
2022-07-29T01:16:32.149Z,0.80
2022-07-29T01:19:23.797Z,3.08
2022-07-29T01:21:59.046Z,1.52
2022-07-29T01:28:14.904Z,1.60
2022-07-29T01:30:43.339Z,0.95
2022-07-29T01:33:34.709Z,2.55
2022-07-29T01:36:06.810Z,1.42
2022-07-29T01:38:35.195Z,2.87
2022-07-29T01:41:09.925Z,1.10
2022-07-29T01:43:42.960Z,1.60
2022-07-29T01:46:15.453Z,1.55
2022-07-29T01:48:48.262Z,3.60
2022-07-29T01:51:28.300Z,4.03
2022-07-29T01:54:11.622Z,1.75
2022-07-29T01:56:40.022Z,2.58
2022-07-29T01:59:08.831Z,1.77
2022-07-29T02:01:40.296Z,1.48
2022-07-29T02:04:10.832Z,2.17
2022-07-29T02:06:39.814Z,2.38
2022-07-29T02:09:08.467Z,2.42
2022-07-29T02:11:36.854Z,1.83
2022-07-29T02:14:05.750Z,2.30
2022-07-29T02:16:34.430Z,0.93
2022-07-29T02:19:03.874Z,1.50
2022-07-29T02:21:33.094Z,1.85
2022-07-29T02:24:02.913Z,1.60
2022-07-29T02:26:34.082Z,3.05
2022-07-29T02:29:02.261Z,4.07
2022-07-29T02:31:33.486Z,1.40
2022-07-29T02:34:03.047Z,1.65
2022-07-29T02:36:32.191Z,3.55
2022-07-29T02:39:01.668Z,2.75
2022-07-29T02:41:34.245Z,1.93
2022-07-29T02:44:10.229Z,4.03
2022-07-29T02:46:38.572Z,1.60
2022-07-29T02:49:42.536Z,2.38
2022-07-29T02:52:17.424Z,1.38
2022-07-29T02:54:52.698Z,2.30
2022-07-29T02:57:26.565Z,1.63
2022-07-29T02:59:54.895Z,3.00
2022-07-29T03:02:22.499Z,1.67
2022-07-29T03:05:26.215Z,2.30
2022-07-29T03:07:47.335Z,1.93
2022-07-29T03:10:18.277Z,1.70
2022-07-29T03:12:45.323Z,1.38
2022-07-29T03:15:12.215Z,1.73
2022-07-29T03:17:40.241Z,1.25
2022-07-29T03:20:09.051Z,2.43
2022-07-29T03:22:44.544Z,3.15
2022-07-29T03:25:12.336Z,3.72
2022-07-29T03:33:13.473Z,2.77
2022-07-29T03:35:40.561Z,2.40
2022-07-29T03:38:10.811Z,2.08
2022-07-29T03:40:44.246Z,2.40
2022-07-29T03:43:12.194Z,2.13
2022-07-29T03:45:52.380Z,2.23
2022-07-29T03:48:43.465Z,1.45
2022-07-29T03:51:13.943Z,3.17
2022-07-29T03:53:40.538Z,2.25
2022-07-29T03:56:30.232Z,1.88
2022-07-29T03:58:57.252Z,2.23
2022-07-29T04:01:25.881Z,2.28
2022-07-29T04:03:52.746Z,3.17
2022-07-29T04:06:43.743Z,2.22
2022-07-29T04:09:11.191Z,3.75
2022-07-29T04:12:01.795Z,4.60
2022-07-29T04:14:26.807Z,1.27
2022-07-29T04:17:15.630Z,3.15
2022-07-29T04:19:44.906Z,2.00
2022-07-29T04:22:11.512Z,3.33
2022-07-29T04:24:38.250Z,2.40
2022-07-29T04:27:04.790Z,2.33
2022-07-29T04:29:57.154Z,3.83
2022-07-29T04:32:25.483Z,2.55
2022-07-29T04:35:24.854Z,2.67
2022-07-29T04:37:51.421Z,2.10
2022-07-29T04:40:18.079Z,2.25
2022-07-29T04:42:46.899Z,2.20
2022-07-29T04:45:23.722Z,3.80
2022-07-29T04:47:51.000Z,2.45
2022-07-29T04:50:22.186Z,2.00
2022-07-29T04:52:48.785Z,2.80
2022-07-29T04:55:15.521Z,1.73
2022-07-29T04:57:42.066Z,1.35
2022-07-29T05:00:33.132Z,2.00
2022-07-29T05:03:01.273Z,2.50
2022-07-29T05:05:36.531Z,3.13
2022-07-29T05:08:26.569Z,4.72
2022-07-29T05:33:08.137Z,3.13
2022-07-29T05:35:35.896Z,2.72
2022-07-29T05:38:02.415Z,2.85
2022-07-29T05:40:28.919Z,6.68
2022-07-29T05:42:58.968Z,2.30
2022-07-29T05:45:58.226Z,1.90
2022-07-29T05:48:51.135Z,2.35
2022-07-29T05:51:17.789Z,3.72
2022-07-29T05:53:45.245Z,2.90
2022-07-29T05:56:12.312Z,2.93
2022-07-29T05:58:59.470Z,3.55
2022-07-29T06:10:49.987Z,3.07
2022-07-29T06:13:17.092Z,4.47
2022-07-29T06:15:44.153Z,1.67
2022-07-29T06:18:12.588Z,1.95
2022-07-29T06:20:40.466Z,1.83
2022-07-29T06:23:07.060Z,2.10
2022-07-29T06:32:45.488Z,2.42
2022-07-29T06:35:38.783Z,2.95
2022-07-29T06:39:05.126Z,2.07
2022-07-29T06:42:38.564Z,1.45
2022-07-29T06:58:21.201Z,1.83
2022-07-29T07:03:45.492Z,1.83
2022-07-29T07:06:15.122Z,3.03
2022-07-29T07:08:42.057Z,3.60
2022-07-29T07:11:09.195Z,2.10
2022-07-29T07:13:36.738Z,3.33
2022-07-29T07:24:03.669Z,2.30
2022-07-29T07:30:23.969Z,3.55
2022-07-29T07:47:28.916Z,3.08
2022-07-29T07:57:39.564Z,3.33
2022-07-29T08:00:23.055Z,4.70
2022-07-29T08:03:43.947Z,2.92
2022-07-29T08:06:38.671Z,2.75
2022-07-29T08:09:27.789Z,3.10
2022-07-29T08:12:30.747Z,3.97
2022-07-29T08:14:57.402Z,2.72
2022-07-29T08:21:30.255Z,3.50
2022-07-29T08:24:18.460Z,2.88
2022-07-29T08:27:42.074Z,3.40
2022-07-29T08:39:12.855Z,2.78
2022-07-29T08:41:37.581Z,5.07
2022-07-29T08:47:14.321Z,3.95
2022-07-29T09:03:01.880Z,5.63
2022-07-29T09:11:44.596Z,3.50
2022-07-29T09:14:13.475Z,4.10
2022-07-29T09:16:54.589Z,4.07
2022-07-29T09:19:24.474Z,6.53
2022-07-29T09:21:58.975Z,3.30
2022-07-29T09:24:28.122Z,1.93
2022-07-29T09:27:23.765Z,2.08
2022-07-29T09:30:25.565Z,3.72
2022-07-29T09:36:23.370Z,1.67
2022-07-29T09:39:33.120Z,3.33
2022-07-29T09:42:34.802Z,2.95
2022-07-29T09:48:26.785Z,5.15
2022-07-29T09:52:17.508Z,3.72
2022-07-29T09:55:40.668Z,4.87
2022-07-29T09:58:19.131Z,3.97
2022-07-29T10:00:49.158Z,4.03
2022-07-29T10:03:44.217Z,5.65
2022-07-29T10:06:11.797Z,2.30
2022-07-29T10:08:38.983Z,2.37
2022-07-29T10:11:17.391Z,4.57
2022-07-29T10:13:50.230Z,2.75
2022-07-29T10:16:52.809Z,5.28
2022-07-29T10:19:25.693Z,4.97
2022-07-29T10:22:43.349Z,3.70
2022-07-29T10:25:38.097Z,4.72
2022-07-29T10:28:20.210Z,4.05
2022-07-29T10:31:21.470Z,4.47
2022-07-29T10:34:09.661Z,5.38
2022-07-29T10:42:44.892Z,5.70
2022-07-29T10:49:45.701Z,3.70
2022-07-29T10:52:18.851Z,4.63
2022-07-29T10:54:48.760Z,3.50
2022-07-29T10:57:54.270Z,5.97
2022-07-29T11:00:16.672Z,5.22
2022-07-29T11:03:10.530Z,3.75
2022-07-29T11:09:16.743Z,5.13
2022-07-29T11:15:01.217Z,4.65
2022-07-29T11:17:28.107Z,4.72
2022-07-29T11:20:43.634Z,5.23
2022-07-29T11:27:13.557Z,4.97
2022-07-29T11:35:17.073Z,4.47
2022-07-29T11:37:55.445Z,5.63
2022-07-29T11:40:24.590Z,3.97
2022-07-29T11:42:52.415Z,5.07
2022-07-29T11:45:43.712Z,4.72
2022-07-29T11:59:18.684Z,3.70
2022-07-29T12:13:07.190Z,4.10
2022-07-29T12:15:52.941Z,5.75
2022-07-29T12:18:30.555Z,3.95
2022-07-29T12:21:30.137Z,7.97
2022-07-29T12:27:46.957Z,4.20
2022-07-29T12:30:45.088Z,4.82
2022-07-29T12:43:58.378Z,8.35
2022-07-29T12:46:28.973Z,6.80
2022-07-29T12:48:59.626Z,4.80
2022-07-29T12:51:53.606Z,3.58
2022-07-29T12:54:20.158Z,5.50
2022-07-29T12:56:46.725Z,4.40
2022-07-29T12:59:17.380Z,3.85
2022-07-29T13:01:46.817Z,4.15
2022-07-29T13:04:52.564Z,3.30
2022-07-29T13:36:52.292Z,3.80
2022-07-29T13:48:39.945Z,3.83
2022-07-29T13:52:10.283Z,9.40
2022-07-29T13:54:42.264Z,5.03
2022-07-29T14:35:22.462Z,5.20
2022-07-29T15:07:56.505Z,3.05
2022-07-29T15:11:05.349Z,6.90
2022-07-29T15:13:44.461Z,5.15
2022-07-29T15:17:08.444Z,3.00
2022-07-29T16:56:58.404Z,4.43
2022-07-29T17:00:05.949Z,3.13
2022-07-29T17:20:58.497Z,2.33
2022-07-29T17:31:45.264Z,4.33
2022-07-29T17:34:20.535Z,2.47
2022-07-29T17:44:10.219Z,2.58
2022-07-29T17:54:51.277Z,2.67
2022-07-29T18:06:10.601Z,3.08
2022-07-29T18:08:40.684Z,3.83
2022-07-29T18:11:39.898Z,4.05
2022-07-29T18:14:11.089Z,2.83
2022-07-29T18:17:01.016Z,4.43
2022-07-29T18:19:29.638Z,3.25
2022-07-29T18:25:09.444Z,3.92
2022-07-29T18:27:56.183Z,3.35
2022-07-29T18:30:26.879Z,2.33
2022-07-29T18:33:19.137Z,2.13
2022-07-29T18:35:39.995Z,5.28
2022-07-29T18:38:06.495Z,3.47
2022-07-29T18:40:50.256Z,8.27
2022-07-29T18:43:16.750Z,3.00
2022-07-29T18:45:43.397Z,3.70
2022-07-29T18:48:12.928Z,3.33
2022-07-29T18:50:40.472Z,2.15
2022-07-29T18:53:07.091Z,3.97
2022-07-29T18:55:34.871Z,4.80
2022-07-29T18:58:01.443Z,6.50
2022-07-29T19:00:28.391Z,4.15
2022-07-29T19:03:00.368Z,5.35
2022-07-29T19:06:04.800Z,3.00
2022-07-29T19:08:44.127Z,5.50
2022-07-29T19:11:12.846Z,5.03
2022-07-29T19:13:40.418Z,8.43
2022-07-29T19:16:07.813Z,6.45
2022-07-29T19:18:34.440Z,7.03
2022-07-29T19:21:01.971Z,5.43
2022-07-29T19:23:28.514Z,4.05
2022-07-29T19:25:55.269Z,3.30
2022-07-29T19:28:22.229Z,3.38
2022-07-29T19:30:52.037Z,2.58
2022-07-29T19:33:19.071Z,6.20
2022-07-29T19:35:47.620Z,5.65
2022-07-29T19:38:15.955Z,4.03
2022-07-29T19:40:42.760Z,5.90
2022-07-29T19:43:51.271Z,3.85
2022-07-29T19:45:56.637Z,3.90
2022-07-29T19:48:23.278Z,5.43
2022-07-29T19:50:50.238Z,3.50
2022-07-29T19:53:17.734Z,3.40
2022-07-29T19:55:44.211Z,6.30
2022-07-29T20:01:11.361Z,5.70
2022-07-29T20:03:44.853Z,6.15
2022-07-29T20:06:11.476Z,4.28
2022-07-29T20:08:38.296Z,7.00
2022-07-29T20:11:07.636Z,6.57
2022-07-29T20:13:35.283Z,4.47
2022-07-29T20:16:05.153Z,4.57
2022-07-29T20:18:31.704Z,5.90
2022-07-29T20:21:00.357Z,6.28
2022-07-29T20:23:27.142Z,3.90
2022-07-29T20:25:54.134Z,5.45
2022-07-29T20:28:21.775Z,5.30
2022-07-29T20:30:48.371Z,5.07
2022-07-29T20:33:16.765Z,4.07
2022-07-29T20:35:43.799Z,6.07
2022-07-29T20:38:12.930Z,6.43
2022-07-29T20:40:41.670Z,7.25
2022-07-29T20:43:09.250Z,6.40
2022-07-29T20:45:36.990Z,5.63
2022-07-29T20:48:04.561Z,5.87
2022-07-29T20:50:31.179Z,4.65
2022-07-29T20:52:57.802Z,5.88
2022-07-29T20:55:30.037Z,5.53
2022-07-29T20:57:56.548Z,6.07
2022-07-29T21:00:23.332Z,7.60
2022-07-29T21:02:50.112Z,5.88
2022-07-29T21:05:16.766Z,7.43
2022-07-29T21:07:43.352Z,7.35
2022-07-29T21:10:10.724Z,8.38
2022-07-29T21:12:37.298Z,9.33
2022-07-29T21:15:09.081Z,4.80
2022-07-29T21:17:38.294Z,7.38
2022-07-29T21:20:08.438Z,7.07
2022-07-29T21:22:34.920Z,6.47
2022-07-29T21:25:02.628Z,7.10
2022-07-29T21:27:47.730Z,7.90
2022-07-29T21:30:14.286Z,8.27
2022-07-29T21:32:42.029Z,6.72
2022-07-29T21:35:19.129Z,7.85
2022-07-29T21:37:58.428Z,7.30
2022-07-29T21:40:24.991Z,4.50
2022-07-29T21:42:51.517Z,5.97
2022-07-29T21:45:18.350Z,5.38
2022-07-29T21:47:47.331Z,7.28
2022-07-29T21:50:13.896Z,6.07
2022-07-29T21:52:40.495Z,5.25
2022-07-29T21:55:08.004Z,4.00
2022-07-29T21:57:37.170Z,7.47
2022-07-29T22:00:06.065Z,6.07
2022-07-29T22:02:32.613Z,5.27
2022-07-29T22:04:59.300Z,5.13
2022-07-29T22:07:25.865Z,7.97
2022-07-29T22:10:12.414Z,7.70
2022-07-29T22:12:38.942Z,7.07
2022-07-29T22:15:05.863Z,4.77
2022-07-29T22:17:32.734Z,5.85
2022-07-29T22:20:00.624Z,6.15
2022-07-29T22:22:27.718Z,7.38
2022-07-29T22:24:55.681Z,6.47
2022-07-29T22:27:22.627Z,5.87
2022-07-29T22:29:49.102Z,7.10
2022-07-29T22:32:15.564Z,5.65
2022-07-29T22:34:42.356Z,6.22
2022-07-29T22:37:08.923Z,7.47
2022-07-29T22:39:35.473Z,6.73
2022-07-29T22:42:02.026Z,7.32
2022-07-29T22:44:28.539Z,7.75
2022-07-29T22:46:55.085Z,6.28
2022-07-29T22:49:21.664Z,7.68
2022-07-29T22:51:48.218Z,6.73
2022-07-29T22:54:15.807Z,4.78
2022-07-29T22:56:42.534Z,6.43
2022-07-29T22:59:09.046Z,4.32
2022-07-29T23:01:37.513Z,3.53
2022-07-29T23:04:04.726Z,6.77
2022-07-29T23:06:31.283Z,6.35
2022-07-29T23:08:57.802Z,10.77
2022-07-29T23:11:24.243Z,8.38
2022-07-29T23:13:50.746Z,4.10
2022-07-29T23:16:26.631Z,5.63
2022-07-29T23:18:54.043Z,6.78
2022-07-29T23:21:20.943Z,6.28
2022-07-29T23:23:49.002Z,7.50
2022-07-29T23:26:17.023Z,9.32
2022-07-29T23:28:45.276Z,5.73
2022-07-29T23:31:13.445Z,6.68
2022-07-29T23:33:40.914Z,5.72
2022-07-29T23:36:07.452Z,8.40
2022-07-29T23:38:33.946Z,7.40
2022-07-29T23:41:02.274Z,5.67
2022-07-29T23:43:28.955Z,5.82
2022-07-29T23:45:56.011Z,7.80
2022-07-29T23:48:24.865Z,8.50
2022-07-29T23:50:51.372Z,6.63
2022-07-29T23:53:17.913Z,7.20
2022-07-29T23:55:44.892Z,11.13
2022-07-29T23:58:11.428Z,6.55
